Brightwood, Oregon
Current Conditions -  °F | °C
As of 8:53 AM on Saturday 20 Dec 2014 (Local Time) from KTTD Reporting Station
Light Rain Light Rain  
Wind Chill: 39°   Ceiling: 2600
Heat Index: 45°   Visibility: 7mi
Dew Point: 41°   Wind: 14mph
Humidity: 86%   Direction: 90°E
Pressure: 29.72"   Gusts: NA
Location:  45.38°N, 122.02°W
Report Text: KTTD 201653Z 09012KT 7SM -RA BKN026 OVC030 07/05 A2972 RMK AO2 SLP063 P0004 T00720050
Loading
Personal Weather Stations






























Interactive Weather Map New forecast layout! Learn more

10-Day Weather Forecast

Advertisements
Track Severe Weather on mobile